createdAt,value
2022-12-31T00:02:23.946Z,20.67
2022-12-31T00:05:11.849Z,16.52
2022-12-31T00:07:45.909Z,27.83
2022-12-31T00:10:33.833Z,25.15
2022-12-31T00:13:13.817Z,18.25
2022-12-31T00:16:05.443Z,34.95
2022-12-31T00:18:46.537Z,17.38
2022-12-31T00:21:33.827Z,18.52
2022-12-31T00:24:08.012Z,25.98
2022-12-31T00:26:55.855Z,20.30
2022-12-31T00:29:29.863Z,22.92
2022-12-31T00:32:17.866Z,11.65
2022-12-31T00:34:51.826Z,27.33
2022-12-31T00:37:39.866Z,15.38
2022-12-31T00:40:14.470Z,20.52
2022-12-31T00:43:01.846Z,18.48
2022-12-31T00:45:41.817Z,18.73
2022-12-31T00:48:22.930Z,22.52
2022-12-31T00:51:03.847Z,24.08
2022-12-31T00:53:44.957Z,23.77
2022-12-31T00:56:33.846Z,16.65
2022-12-31T00:59:07.934Z,11.40
2022-12-31T01:01:56.973Z,15.45
2022-12-31T01:04:30.939Z,18.13
2022-12-31T01:07:17.853Z,18.08
2022-12-31T01:09:59.857Z,14.55
2022-12-31T01:12:46.837Z,15.40
2022-12-31T01:15:27.882Z,14.40
2022-12-31T01:18:21.820Z,18.63
2022-12-31T01:21:10.848Z,13.38
2022-12-31T01:23:58.864Z,15.23
2022-12-31T01:26:46.845Z,19.05
2022-12-31T01:29:27.931Z,23.17
2022-12-31T01:32:07.816Z,19.17
2022-12-31T01:34:49.039Z,17.17
2022-12-31T01:37:28.858Z,15.70
2022-12-31T01:40:09.938Z,12.88
2022-12-31T01:42:50.823Z,15.88
2022-12-31T01:45:31.930Z,23.58
2022-12-31T01:48:19.827Z,9.50
2022-12-31T01:50:53.933Z,12.35
2022-12-31T01:53:41.100Z,10.70
2022-12-31T01:56:14.941Z,10.57
2022-12-31T01:59:03.866Z,12.75
2022-12-31T02:01:40.041Z,11.45
2022-12-31T02:04:27.855Z,14.68
2022-12-31T02:07:07.082Z,17.52
2022-12-31T02:09:54.864Z,10.18
2022-12-31T02:12:28.907Z,14.38
2022-12-31T02:15:16.883Z,14.27
2022-12-31T02:18:06.874Z,17.00
2022-12-31T02:21:24.870Z,19.67
2022-12-31T02:24:24.835Z,14.13
2022-12-31T02:27:04.106Z,18.05
2022-12-31T02:30:09.905Z,17.67
2022-12-31T02:32:50.840Z,8.85
2022-12-31T02:36:05.825Z,17.45
2022-12-31T02:39:01.867Z,13.73
2022-12-31T02:41:57.981Z,16.30
2022-12-31T02:44:36.964Z,13.27
2022-12-31T02:47:37.855Z,13.93
2022-12-31T02:50:37.171Z,16.08
2022-12-31T02:53:28.865Z,13.52
2022-12-31T02:56:27.984Z,11.25
2022-12-31T02:59:35.845Z,8.57
2022-12-31T03:05:02.602Z,8.65
2022-12-31T03:07:49.835Z,14.60
2022-12-31T03:10:23.840Z,11.32
2022-12-31T03:13:11.848Z,13.55
2022-12-31T03:15:45.772Z,13.77
2022-12-31T03:18:53.847Z,13.75
2022-12-31T03:21:46.703Z,17.70
2022-12-31T03:24:51.867Z,14.63
2022-12-31T03:27:25.776Z,10.70
2022-12-31T03:30:13.816Z,10.05
2022-12-31T03:32:54.845Z,8.15
2022-12-31T03:35:43.871Z,12.82
2022-12-31T03:38:18.387Z,10.40
2022-12-31T03:40:59.831Z,16.60
2022-12-31T03:43:33.936Z,15.98
2022-12-31T03:46:13.895Z,7.28
2022-12-31T03:48:54.926Z,13.90
2022-12-31T03:51:34.885Z,13.32
2022-12-31T03:54:22.827Z,11.73
2022-12-31T03:57:00.002Z,13.98
2022-12-31T03:59:47.839Z,12.00
2022-12-31T04:02:28.089Z,8.98
2022-12-31T04:05:16.865Z,11.30
2022-12-31T04:07:52.143Z,15.18
2022-12-31T04:10:39.930Z,15.05
2022-12-31T04:13:13.844Z,9.30
2022-12-31T04:16:03.868Z,10.23
2022-12-31T04:18:37.791Z,13.52
2022-12-31T04:21:30.106Z,8.38
2022-12-31T04:24:07.212Z,11.98
2022-12-31T04:26:54.882Z,9.30
2022-12-31T04:29:34.880Z,14.20
2022-12-31T04:32:22.837Z,11.15
2022-12-31T04:34:56.780Z,10.68
2022-12-31T04:37:44.849Z,9.43
2022-12-31T04:40:18.899Z,16.48
2022-12-31T04:43:06.861Z,11.95
2022-12-31T04:45:46.918Z,10.30
2022-12-31T04:48:34.857Z,14.68
2022-12-31T04:51:08.801Z,11.60
2022-12-31T04:53:57.828Z,8.90
2022-12-31T04:56:32.480Z,21.30
2022-12-31T04:59:19.888Z,11.15
2022-12-31T05:02:13.972Z,9.98
2022-12-31T05:05:00.919Z,7.85
2022-12-31T05:07:48.858Z,10.18
2022-12-31T05:10:29.850Z,11.10
2022-12-31T05:13:17.836Z,9.68
2022-12-31T05:15:58.877Z,13.25
2022-12-31T05:18:39.978Z,10.65
2022-12-31T05:21:27.842Z,10.55
2022-12-31T05:24:01.920Z,10.63
2022-12-31T05:26:49.858Z,13.02
2022-12-31T05:29:23.934Z,9.88
2022-12-31T05:32:11.871Z,9.20
2022-12-31T05:34:45.937Z,11.80
2022-12-31T05:37:34.877Z,10.15
2022-12-31T05:40:15.879Z,9.20
2022-12-31T05:43:09.875Z,7.47
2022-12-31T05:45:57.062Z,10.85
2022-12-31T05:48:31.165Z,10.40
2022-12-31T05:51:17.885Z,8.90
2022-12-31T05:53:52.209Z,8.55
2022-12-31T05:56:39.881Z,12.20
2022-12-31T05:59:20.932Z,8.35
2022-12-31T06:02:01.905Z,8.07
2022-12-31T06:04:42.929Z,8.93
2022-12-31T06:07:22.897Z,8.40
2022-12-31T06:10:10.858Z,9.60
2022-12-31T06:12:44.825Z,9.52
2022-12-31T06:15:32.974Z,8.13
2022-12-31T06:18:06.878Z,11.23
2022-12-31T06:20:54.910Z,9.52
2022-12-31T06:23:28.834Z,6.72
2022-12-31T06:26:19.872Z,9.15
2022-12-31T06:28:53.835Z,8.98
2022-12-31T06:31:41.880Z,11.70
2022-12-31T06:34:15.811Z,6.45
2022-12-31T06:37:03.851Z,6.68
2022-12-31T06:39:44.814Z,9.85
2022-12-31T06:42:32.920Z,5.90
2022-12-31T06:45:07.201Z,12.00
2022-12-31T06:47:54.908Z,10.52
2022-12-31T06:50:28.890Z,8.50
2022-12-31T06:53:16.871Z,6.53
2022-12-31T06:55:50.948Z,7.97
2022-12-31T06:58:38.856Z,8.23
2022-12-31T07:01:33.764Z,11.20
2022-12-31T07:04:47.901Z,11.75
2022-12-31T07:07:37.867Z,8.82
2022-12-31T07:10:15.000Z,9.48
2022-12-31T07:15:39.001Z,8.75
2022-12-31T07:18:27.840Z,6.75
2022-12-31T07:21:08.888Z,9.45
2022-12-31T07:23:42.952Z,8.98
2022-12-31T07:26:56.206Z,10.13
2022-12-31T07:29:58.857Z,8.80
2022-12-31T07:33:07.862Z,9.73
2022-12-31T07:36:21.885Z,8.18
2022-12-31T07:39:08.896Z,11.05
2022-12-31T07:42:11.894Z,6.10
2022-12-31T07:45:06.103Z,6.95
2022-12-31T07:47:58.905Z,12.63
2022-12-31T07:50:43.848Z,7.93
2022-12-31T07:53:38.888Z,7.93
2022-12-31T07:56:26.903Z,7.13
2022-12-31T07:59:03.988Z,6.13
2022-12-31T08:01:55.981Z,7.38
2022-12-31T08:05:02.000Z,7.47
2022-12-31T08:07:41.866Z,9.15
2022-12-31T08:10:31.987Z,6.93
2022-12-31T08:15:40.736Z,5.22
2022-12-31T08:18:27.912Z,7.65
2022-12-31T08:21:18.169Z,5.20
2022-12-31T08:24:14.913Z,7.00
2022-12-31T08:27:07.751Z,10.65
2022-12-31T08:30:00.890Z,8.57
2022-12-31T08:32:59.924Z,9.27
2022-12-31T08:35:54.981Z,7.80
2022-12-31T08:38:34.926Z,6.88
2022-12-31T08:41:43.138Z,6.15
2022-12-31T08:44:22.925Z,7.13
2022-12-31T08:47:10.986Z,6.07
2022-12-31T08:49:51.894Z,5.80
2022-12-31T08:52:34.034Z,5.40
2022-12-31T08:55:14.868Z,10.80
2022-12-31T08:58:14.997Z,7.07
2022-12-31T09:01:00.023Z,6.20
2022-12-31T09:03:40.968Z,7.40
2022-12-31T09:06:27.868Z,8.40
2022-12-31T09:09:14.955Z,6.45
2022-12-31T09:12:16.903Z,10.55
2022-12-31T09:14:51.941Z,6.85
2022-12-31T09:17:56.917Z,5.40
2022-12-31T09:20:42.858Z,10.07
2022-12-31T09:23:30.902Z,7.07
2022-12-31T09:26:14.252Z,7.18
2022-12-31T09:29:15.888Z,6.55
2022-12-31T09:31:59.911Z,8.45
2022-12-31T09:35:07.883Z,5.65
2022-12-31T09:38:11.645Z,5.68
2022-12-31T09:40:58.903Z,11.40
2022-12-31T09:43:38.969Z,14.82
2022-12-31T09:46:35.901Z,11.13
2022-12-31T09:49:19.884Z,10.77
2022-12-31T09:52:32.871Z,8.52
2022-12-31T09:55:51.916Z,11.30
2022-12-31T09:58:50.927Z,13.88
2022-12-31T10:01:50.061Z,8.63
2022-12-31T10:04:46.883Z,12.43
2022-12-31T10:07:52.026Z,11.20
2022-12-31T10:10:35.897Z,11.43
2022-12-31T10:13:32.783Z,12.00
2022-12-31T10:16:20.987Z,9.85
2022-12-31T10:19:10.190Z,11.07
2022-12-31T10:22:07.941Z,10.43
2022-12-31T10:24:59.715Z,7.85
2022-12-31T10:28:12.895Z,12.13
2022-12-31T10:30:56.299Z,8.55
2022-12-31T10:34:13.942Z,10.48
2022-12-31T10:36:53.926Z,11.40
2022-12-31T10:39:53.911Z,13.10
2022-12-31T10:42:30.656Z,10.60
2022-12-31T10:45:43.978Z,11.85
2022-12-31T10:48:32.969Z,11.05
2022-12-31T10:51:32.925Z,11.65
2022-12-31T10:54:19.670Z,12.57
2022-12-31T10:57:24.929Z,11.60
2022-12-31T11:00:08.888Z,10.35
2022-12-31T11:03:11.968Z,9.13
2022-12-31T11:06:37.899Z,13.60
2022-12-31T11:09:43.896Z,11.27
2022-12-31T11:12:18.143Z,8.75
2022-12-31T11:15:07.906Z,10.38
2022-12-31T11:17:58.910Z,12.32
2022-12-31T11:20:51.718Z,10.77
2022-12-31T11:23:38.918Z,12.45
2022-12-31T11:26:48.491Z,13.95
2022-12-31T11:29:54.941Z,14.25
2022-12-31T11:32:28.831Z,17.98
2022-12-31T11:35:22.897Z,12.63
2022-12-31T11:38:12.926Z,9.35
2022-12-31T11:41:48.997Z,8.25
2022-12-31T11:44:47.914Z,7.95
2022-12-31T11:48:28.017Z,10.45
2022-12-31T11:51:16.060Z,9.50
2022-12-31T11:54:22.946Z,9.18
2022-12-31T11:57:15.555Z,9.20
2022-12-31T12:00:14.934Z,7.97
2022-12-31T12:03:11.959Z,9.55
2022-12-31T12:05:58.913Z,8.95
2022-12-31T12:08:33.068Z,8.57
2022-12-31T12:11:24.913Z,9.80
2022-12-31T12:13:59.001Z,9.10
2022-12-31T12:16:46.924Z,12.93
2022-12-31T12:19:28.027Z,11.27
2022-12-31T12:22:16.929Z,12.80
2022-12-31T12:25:26.908Z,13.35
2022-12-31T12:28:11.626Z,12.68
2022-12-31T12:30:59.030Z,14.95
2022-12-31T12:33:49.947Z,15.63
2022-12-31T12:36:59.891Z,12.85
2022-12-31T12:39:47.950Z,13.85
2022-12-31T12:42:22.007Z,9.82
2022-12-31T12:45:14.917Z,14.15
2022-12-31T12:47:56.907Z,11.95
2022-12-31T12:50:50.925Z,13.85
2022-12-31T12:53:43.980Z,13.27
2022-12-31T12:56:46.929Z,15.07
2022-12-31T12:59:42.929Z,11.98
2022-12-31T13:02:45.940Z,10.63
2022-12-31T13:05:40.944Z,8.93
2022-12-31T13:09:03.992Z,11.80
2022-12-31T13:12:02.307Z,6.55
2022-12-31T13:15:00.943Z,8.77
2022-12-31T13:17:55.023Z,9.02
2022-12-31T13:20:59.933Z,8.82
2022-12-31T13:23:55.028Z,8.65
2022-12-31T13:26:45.947Z,7.07
2022-12-31T13:29:37.904Z,7.70
2022-12-31T13:32:16.095Z,7.57
2022-12-31T13:35:07.925Z,6.55
2022-12-31T13:37:42.711Z,6.93
2022-12-31T13:40:39.918Z,6.90
2022-12-31T13:43:35.216Z,5.13
2022-12-31T13:46:22.967Z,7.38
2022-12-31T13:49:16.920Z,8.15
2022-12-31T13:52:00.076Z,8.23
2022-12-31T13:54:42.913Z,14.43
2022-12-31T13:57:39.032Z,5.55
2022-12-31T14:00:32.959Z,5.47
2022-12-31T14:03:31.952Z,5.93
2022-12-31T14:06:17.615Z,6.00
2022-12-31T14:09:05.946Z,5.68
2022-12-31T14:11:45.966Z,7.77
2022-12-31T14:14:51.966Z,6.22
2022-12-31T14:17:48.098Z,5.40
2022-12-31T14:20:53.913Z,7.35
2022-12-31T14:23:46.227Z,7.68
2022-12-31T14:26:33.922Z,7.00
2022-12-31T14:29:11.078Z,6.47
2022-12-31T14:34:32.844Z,6.05
2022-12-31T14:37:50.946Z,6.43
2022-12-31T14:40:24.902Z,7.22
2022-12-31T14:43:21.973Z,6.85
2022-12-31T14:46:16.959Z,9.48
2022-12-31T14:48:56.227Z,14.75
2022-12-31T14:51:43.957Z,9.15
2022-12-31T14:54:42.017Z,15.10
2022-12-31T14:57:24.969Z,10.40
2022-12-31T15:00:07.027Z,6.65
2022-12-31T15:03:00.093Z,10.02
2022-12-31T15:05:43.033Z,8.80
2022-12-31T15:08:35.974Z,10.05
2022-12-31T15:11:23.026Z,3.45
2022-12-31T15:14:02.925Z,8.20
2022-12-31T15:16:46.069Z,10.68
2022-12-31T15:19:32.919Z,6.90
2022-12-31T15:22:22.054Z,4.00
2022-12-31T15:25:09.943Z,4.97
2022-12-31T15:27:46.035Z,5.38
2022-12-31T15:33:16.069Z,6.28
2022-12-31T15:36:03.945Z,6.15
2022-12-31T15:38:45.034Z,7.45
2022-12-31T15:42:03.102Z,10.77
2022-12-31T15:45:03.967Z,9.00
2022-12-31T15:47:41.883Z,7.90
2022-12-31T15:50:31.939Z,7.38
2022-12-31T15:53:07.107Z,8.65
2022-12-31T15:55:59.952Z,9.32
2022-12-31T15:58:36.155Z,11.10
2022-12-31T16:01:28.033Z,8.30
2022-12-31T16:04:06.312Z,10.25
2022-12-31T16:06:54.000Z,5.53
2022-12-31T16:09:34.607Z,6.70
2022-12-31T16:12:35.183Z,7.47
2022-12-31T16:15:21.308Z,9.48
2022-12-31T16:18:17.158Z,10.45
2022-12-31T16:20:54.908Z,15.85
2022-12-31T16:23:42.937Z,14.35
2022-12-31T16:26:23.959Z,8.57
2022-12-31T16:29:11.942Z,9.32
2022-12-31T16:31:52.928Z,10.13
2022-12-31T16:34:34.028Z,5.85
2022-12-31T16:37:27.978Z,11.13
2022-12-31T16:40:24.284Z,9.88
2022-12-31T16:43:03.944Z,9.75
2022-12-31T16:45:45.088Z,5.65
2022-12-31T16:48:27.968Z,5.00
2022-12-31T16:51:15.962Z,6.95
2022-12-31T16:53:50.280Z,7.82
2022-12-31T16:56:37.946Z,9.32
2022-12-31T16:59:18.641Z,9.15
2022-12-31T17:02:07.218Z,14.63
2022-12-31T17:04:48.041Z,10.07
2022-12-31T17:07:53.017Z,9.95
2022-12-31T17:10:39.948Z,7.25
2022-12-31T17:13:44.960Z,9.32
2022-12-31T17:16:19.202Z,7.70
2022-12-31T17:19:07.011Z,6.47
2022-12-31T17:21:55.022Z,9.48
2022-12-31T17:24:36.050Z,7.13
2022-12-31T17:27:16.958Z,12.23
2022-12-31T17:30:05.007Z,8.85
2022-12-31T17:32:45.983Z,6.07
2022-12-31T17:35:49.983Z,5.68
2022-12-31T17:38:30.005Z,8.88
2022-12-31T17:41:20.957Z,7.30
2022-12-31T17:44:03.047Z,9.25
2022-12-31T17:46:47.088Z,8.02
2022-12-31T17:49:33.944Z,5.55
2022-12-31T17:52:22.102Z,5.22
2022-12-31T17:55:02.008Z,6.15
2022-12-31T17:57:43.082Z,4.40
2022-12-31T18:00:25.104Z,4.53
2022-12-31T18:03:06.144Z,7.72
2022-12-31T18:05:46.063Z,8.77
2022-12-31T18:08:27.031Z,6.68
2022-12-31T18:11:06.972Z,4.93
2022-12-31T18:13:48.048Z,4.60
2022-12-31T18:16:28.104Z,4.10
2022-12-31T18:19:14.089Z,3.08
2022-12-31T18:22:06.966Z,3.38
2022-12-31T18:24:48.158Z,3.10
2022-12-31T18:27:28.050Z,3.33
2022-12-31T18:30:09.741Z,3.60
2022-12-31T18:32:50.985Z,3.38
2022-12-31T18:38:38.966Z,3.13
2022-12-31T18:41:13.108Z,4.00
2022-12-31T18:44:01.019Z,3.00
2022-12-31T18:46:35.095Z,2.65
2022-12-31T18:49:22.040Z,2.88
2022-12-31T18:51:57.011Z,3.05
2022-12-31T18:54:43.999Z,2.90
2022-12-31T18:57:19.114Z,5.82
2022-12-31T19:00:06.965Z,7.65
2022-12-31T19:02:41.149Z,4.65
2022-12-31T19:05:27.979Z,4.32
2022-12-31T19:08:09.005Z,3.40
2022-12-31T19:11:05.013Z,3.60
2022-12-31T19:13:52.965Z,2.58
2022-12-31T19:16:34.047Z,8.73
2022-12-31T19:19:28.990Z,4.65
2022-12-31T19:22:21.058Z,3.50
2022-12-31T19:24:55.084Z,3.60
2022-12-31T19:27:41.960Z,4.47
2022-12-31T19:30:30.061Z,4.80
2022-12-31T19:33:23.992Z,3.47
2022-12-31T19:38:53.012Z,4.82
2022-12-31T19:41:27.063Z,3.97
2022-12-31T19:44:19.984Z,3.08
2022-12-31T19:47:01.010Z,3.38
2022-12-31T19:49:48.034Z,2.30
2022-12-31T19:52:22.054Z,4.35
2022-12-31T19:55:10.029Z,7.25
2022-12-31T19:57:44.074Z,2.45
2022-12-31T20:00:31.010Z,4.57
2022-12-31T20:03:12.111Z,3.25
2022-12-31T20:06:19.001Z,6.70
2022-12-31T20:09:07.005Z,5.82
2022-12-31T20:11:41.114Z,2.17
2022-12-31T20:14:28.006Z,3.55
2022-12-31T20:17:09.057Z,3.75
2022-12-31T20:19:56.018Z,1.80
2022-12-31T20:22:30.084Z,1.52
2022-12-31T20:25:16.987Z,3.67
2022-12-31T20:28:01.566Z,2.92
2022-12-31T20:30:44.088Z,2.25
2022-12-31T20:33:25.110Z,3.60
2022-12-31T20:36:11.004Z,3.60
2022-12-31T20:38:52.177Z,3.03
2022-12-31T20:41:33.991Z,3.58
2022-12-31T20:44:15.111Z,3.30
2022-12-31T20:46:55.153Z,2.75
2022-12-31T20:50:09.653Z,2.22
2022-12-31T20:52:37.039Z,4.90
2022-12-31T20:55:26.037Z,3.40
2022-12-31T20:58:19.973Z,13.93
2022-12-31T21:01:08.170Z,4.00
2022-12-31T21:06:50.060Z,8.43
2022-12-31T21:09:24.177Z,13.68
2022-12-31T21:12:30.054Z,6.80
2022-12-31T21:15:04.083Z,38.40
2022-12-31T21:17:51.018Z,15.95
2022-12-31T21:20:31.118Z,6.70
2022-12-31T21:23:12.006Z,5.68
2022-12-31T21:25:53.021Z,6.28
2022-12-31T21:28:27.117Z,8.40
2022-12-31T21:31:15.201Z,7.72
2022-12-31T21:33:53.126Z,8.57
2022-12-31T21:36:40.048Z,7.95
2022-12-31T21:39:14.155Z,8.98
2022-12-31T21:42:02.034Z,8.95
2022-12-31T21:44:36.094Z,8.80
2022-12-31T21:47:47.411Z,9.48
2022-12-31T21:50:22.125Z,5.72
2022-12-31T21:53:09.029Z,7.85
2022-12-31T21:56:15.007Z,12.32
2022-12-31T21:59:13.217Z,9.32
2022-12-31T22:02:19.118Z,6.78
2022-12-31T22:05:17.365Z,8.15
2022-12-31T22:08:01.055Z,4.78
2022-12-31T22:10:37.250Z,2.13
2022-12-31T22:13:25.012Z,5.55
2022-12-31T22:16:04.643Z,4.57
2022-12-31T22:18:53.049Z,3.10
2022-12-31T22:21:27.597Z,6.35
2022-12-31T22:24:15.027Z,2.70
2022-12-31T22:26:48.987Z,1.42
2022-12-31T22:29:37.021Z,1.75
2022-12-31T22:32:11.035Z,1.42
2022-12-31T22:34:59.062Z,1.83
2022-12-31T22:37:56.840Z,2.40
2022-12-31T22:40:46.046Z,2.72
2022-12-31T22:43:19.999Z,2.22
2022-12-31T22:46:08.094Z,2.55
2022-12-31T22:48:42.617Z,4.15
2022-12-31T22:51:57.604Z,2.53
2022-12-31T22:54:30.069Z,2.55
2022-12-31T22:57:16.137Z,3.35
2022-12-31T23:00:00.066Z,1.42
2022-12-31T23:02:48.072Z,1.10
2022-12-31T23:05:22.005Z,6.50
2022-12-31T23:08:18.795Z,6.93
2022-12-31T23:11:02.734Z,6.22
2022-12-31T23:14:13.065Z,12.57
2022-12-31T23:17:29.801Z,53.28
2022-12-31T23:20:39.126Z,54.10
2022-12-31T23:23:33.065Z,47.92
2022-12-31T23:26:20.040Z,33.22
2022-12-31T23:28:54.112Z,24.23
2022-12-31T23:31:41.110Z,40.58
2022-12-31T23:34:22.167Z,36.28
2022-12-31T23:37:02.042Z,39.95
2022-12-31T23:39:43.151Z,37.35
2022-12-31T23:42:24.052Z,37.33
2022-12-31T23:45:05.132Z,36.10
2022-12-31T23:47:46.058Z,40.42
2022-12-31T23:50:34.065Z,31.33
2022-12-31T23:53:08.031Z,29.20
2022-12-31T23:55:56.044Z,19.33
2022-12-31T23:58:30.145Z,19.10
